If you wish to contribute or participate in the discussions about articles you are invited to join SKYbrary as a registered user

 Actions

Altamira Airport

From SKYbrary Wiki

SBHT
Airport
ICAO: SBHT – IATA: ATM
Summary
Name Altamira Airport
Region South America and Caribbean
Territory Brazil BR.gif
Location Altamira, Para
Serving Altamira
Elevation 112.166 m
368 ft112.166 m
Coordinates 3° 15' 2.99" S, 52° 15' 7.99" W
Runways
Designator Length Width Surface ROPS
7/25 2003 m6,571.522 ft
38 m124.672 ft
ASP /


METAR
Observation SBHT 192100Z 07005KT 9999 SCT030 SCT090 29/23 Q1010
Station Altamira
Date/Time 19 January 2019 21:00:00
Wind direction 70°
Wind speed 05 kts
Lowest cloud amount scattered clouds
Temperature 29°C
Dew point 23°C
Humidity 70%
QNH 1010 hPa
Weather condition n/a

Altamira Airport is the airport serving Altamira, Brazil.

Climatology

Tropical rainforest climate (Köppen climate classification Af)

Maps

Terrain

Loading map...

Airport Layout

Loading map...


Accidents & Serious Incidents at or in vicinity of SBHT

None on SKYbrary